Qara, Saudi Arabia
Current Conditions -  °F | °C
As of 1:00 PM on Monday 20 Oct 2014 (Local Time) from OESK Reporting Station
Broken Clouds Broken Clouds  
Wind Chill: 77°   Ceiling: 3000
Heat Index: 78°   Visibility: 6mi
Dew Point: 45°   Wind: 28mph
Humidity: 32%   Direction: 300°WNW
Pressure: 29.85"   Gusts: NA
Location:  29.88°N, 40.23°E
Report Text: OESK 201000Z 30024KT 9999 BKN030 25/07 Q1011 NOSIG
Loading
Personal Weather Stations






























Interactive Weather Map
Tropical Storm Tracking
New forecast layout! Learn more

10-Day Weather Forecast

Advertisements
Track Severe Weather on mobile